createdAt,value
2019-02-22T00:00:11.807Z,60.37
2019-02-22T00:02:52.506Z,64.90
2019-02-22T00:05:33.237Z,64.97
2019-02-22T00:08:13.532Z,66.77
2019-02-22T00:10:42.008Z,66.53
2019-02-22T00:13:29.817Z,62.37
2019-02-22T00:16:17.649Z,65.13
2019-02-22T00:18:57.947Z,68.67
2019-02-22T00:21:38.945Z,70.80
2019-02-22T00:24:19.972Z,70.00
2019-02-22T00:27:00.736Z,64.13
2019-02-22T00:29:41.516Z,74.40
2019-02-22T00:32:22.218Z,74.57
2019-02-22T00:35:02.887Z,63.53
2019-02-22T00:37:43.329Z,68.77
2019-02-22T00:40:23.813Z,71.33
2019-02-22T00:43:04.502Z,72.10
2019-02-22T00:45:45.224Z,68.40
2019-02-22T00:48:25.988Z,74.30
2019-02-22T00:51:07.152Z,71.50
2019-02-22T00:53:47.822Z,73.40
2019-02-22T00:56:28.421Z,69.03
2019-02-22T00:59:09.060Z,70.13
2019-02-22T01:01:50.052Z,76.03
2019-02-22T01:04:31.195Z,76.03
2019-02-22T01:07:12.099Z,75.77
2019-02-22T01:09:53.052Z,71.37
2019-02-22T01:12:33.640Z,80.90
2019-02-22T01:15:14.171Z,74.90
2019-02-22T01:17:42.645Z,79.53
2019-02-22T01:20:30.466Z,80.10
2019-02-22T01:23:18.263Z,80.90
2019-02-22T01:29:00.073Z,71.30
2019-02-22T01:31:40.821Z,76.60
2019-02-22T01:34:21.176Z,75.67
2019-02-22T01:37:02.197Z,85.97
2019-02-22T01:39:43.130Z,77.90
2019-02-22T01:42:23.812Z,83.33
2019-02-22T01:44:52.300Z,71.60
2019-02-22T01:47:40.114Z,79.80
2019-02-22T01:50:27.932Z,80.67
2019-02-22T01:53:08.774Z,72.37
2019-02-22T01:55:49.426Z,69.67
2019-02-22T01:58:30.391Z,73.23
2019-02-22T02:01:10.878Z,73.90
2019-02-22T02:03:51.725Z,69.93
2019-02-22T02:06:32.532Z,67.47
2019-02-22T02:09:01.008Z,68.50
2019-02-22T02:11:48.816Z,64.67
2019-02-22T02:14:29.708Z,68.47
2019-02-22T02:16:58.180Z,72.03
2019-02-22T02:19:46.054Z,69.57
2019-02-22T02:22:33.931Z,63.80
2019-02-22T02:25:15.006Z,63.73
2019-02-22T02:27:55.952Z,67.27
2019-02-22T02:30:36.763Z,66.20
2019-02-22T02:33:17.243Z,60.93
2019-02-22T02:35:58.108Z,68.03
2019-02-22T02:38:38.886Z,67.00
2019-02-22T02:41:19.393Z,57.07
2019-02-22T02:43:59.795Z,58.77
2019-02-22T02:46:40.147Z,58.63
2019-02-22T02:49:20.678Z,63.90
2019-02-22T02:52:01.478Z,63.53
2019-02-22T02:54:42.308Z,63.20
2019-02-22T02:57:22.945Z,63.50
2019-02-22T03:00:04.099Z,60.60
2019-02-22T03:02:32.983Z,61.67
2019-02-22T03:05:14.197Z,59.93
2019-02-22T03:10:51.734Z,57.73
2019-02-22T03:13:39.912Z,51.93
2019-02-22T03:16:28.153Z,53.23
2019-02-22T03:19:09.370Z,58.63
2019-02-22T03:21:50.098Z,57.77
2019-02-22T03:24:30.981Z,60.50
2019-02-22T03:27:11.857Z,58.67
2019-02-22T03:29:52.740Z,62.77
2019-02-22T03:32:34.087Z,60.50
2019-02-22T03:35:15.328Z,58.30
2019-02-22T03:43:40.714Z,57.53
2019-02-22T03:46:09.249Z,59.77
2019-02-22T03:48:37.727Z,59.10
2019-02-22T03:51:25.620Z,61.20
2019-02-22T03:54:13.597Z,56.83
2019-02-22T03:56:53.868Z,61.13
2019-02-22T03:59:34.684Z,59.13
2019-02-22T04:02:15.103Z,58.07
2019-02-22T04:04:55.592Z,62.67
2019-02-22T04:07:36.790Z,60.03
2019-02-22T04:10:17.250Z,65.87
2019-02-22T04:12:45.736Z,59.97
2019-02-22T04:15:33.589Z,62.97
2019-02-22T04:18:02.074Z,63.77
2019-02-22T04:20:49.887Z,61.97
2019-02-22T04:23:30.154Z,67.77
2019-02-22T04:26:10.913Z,67.47
2019-02-22T04:28:53.345Z,65.80
2019-02-22T04:31:34.259Z,67.07
2019-02-22T04:34:15.186Z,68.30
2019-02-22T04:36:55.795Z,70.27
2019-02-22T04:39:36.244Z,68.13
2019-02-22T04:42:04.718Z,75.97
2019-02-22T04:44:52.543Z,78.23
2019-02-22T04:47:40.329Z,73.50
2019-02-22T04:50:21.505Z,70.70
2019-02-22T04:53:02.059Z,74.73
2019-02-22T04:55:42.809Z,68.10
2019-02-22T04:58:23.407Z,71.93
2019-02-22T05:01:04.516Z,74.17
2019-02-22T05:03:45.646Z,80.00
2019-02-22T05:06:26.497Z,75.40
2019-02-22T05:09:07.305Z,77.57
2019-02-22T05:11:35.784Z,74.60
2019-02-22T05:14:23.567Z,85.83
2019-02-22T05:17:11.414Z,87.60
2019-02-22T05:19:52.600Z,78.90
2019-02-22T05:22:33.401Z,80.63
2019-02-22T05:25:13.992Z,80.43
2019-02-22T05:27:54.588Z,88.17
2019-02-22T05:30:36.534Z,74.73
2019-02-22T05:33:17.388Z,82.30
2019-02-22T05:35:58.049Z,77.60
2019-02-22T05:38:38.857Z,85.00
2019-02-22T05:41:19.752Z,79.10
2019-02-22T05:44:00.600Z,88.03
2019-02-22T05:46:41.643Z,87.20
2019-02-22T05:49:22.633Z,77.67
2019-02-22T05:52:03.350Z,76.63
2019-02-22T05:54:44.292Z,76.13
2019-02-22T05:57:25.216Z,80.37
2019-02-22T06:00:06.446Z,78.17
2019-02-22T06:02:47.129Z,72.57
2019-02-22T06:05:27.572Z,68.63
2019-02-22T06:07:56.057Z,71.33
2019-02-22T06:10:43.924Z,72.33
2019-02-22T06:13:31.791Z,65.33
2019-02-22T06:16:12.128Z,64.17
2019-02-22T06:18:53.199Z,67.10
2019-02-22T06:21:34.061Z,67.60
2019-02-22T06:24:14.684Z,70.83
2019-02-22T06:26:55.206Z,64.47
2019-02-22T06:29:35.833Z,66.30
2019-02-22T06:32:04.308Z,68.37
2019-02-22T06:34:52.114Z,64.77
2019-02-22T06:37:32.903Z,60.80
2019-02-22T06:40:14.026Z,63.73
2019-02-22T06:42:54.458Z,65.63
2019-02-22T06:45:34.761Z,64.97
2019-02-22T06:48:15.744Z,63.60
2019-02-22T06:50:56.893Z,59.43
2019-02-22T06:53:37.448Z,64.83
2019-02-22T06:56:18.374Z,63.13
2019-02-22T06:58:59.393Z,59.50
2019-02-22T07:01:27.898Z,63.10
2019-02-22T07:04:15.803Z,61.67
2019-02-22T07:07:03.663Z,63.23
2019-02-22T07:09:44.917Z,64.20
2019-02-22T07:12:26.950Z,65.40
2019-02-22T07:14:55.423Z,68.47
2019-02-22T07:17:43.312Z,64.07
2019-02-22T07:20:31.248Z,59.93
2019-02-22T07:23:11.663Z,63.47
2019-02-22T07:25:52.199Z,62.10
2019-02-22T07:28:32.851Z,64.70
2019-02-22T07:31:13.603Z,62.23
2019-02-22T07:33:54.621Z,58.40
2019-02-22T07:36:35.229Z,60.97
2019-02-22T07:39:27.069Z,62.03
2019-02-22T07:41:58.137Z,65.13
2019-02-22T07:44:39.085Z,71.93
2019-02-22T07:47:19.648Z,70.27
2019-02-22T07:49:59.976Z,74.07
2019-02-22T07:52:40.665Z,70.00
2019-02-22T07:55:21.557Z,71.27
2019-02-22T07:58:02.359Z,66.17
2019-02-22T08:00:43.230Z,66.47
2019-02-22T08:03:23.681Z,68.37
2019-02-22T08:06:04.571Z,72.07
2019-02-22T08:11:58.090Z,75.63
2019-02-22T08:14:26.696Z,74.13
2019-02-22T08:17:14.796Z,76.10
2019-02-22T08:20:04.819Z,66.50
2019-02-22T08:22:45.133Z,69.00
2019-02-22T08:25:26.020Z,68.70
2019-02-22T08:28:07.201Z,68.30
2019-02-22T08:30:47.558Z,70.03
2019-02-22T08:33:28.413Z,67.50
2019-02-22T08:36:09.220Z,61.50
2019-02-22T08:38:49.910Z,64.37
2019-02-22T08:41:30.795Z,60.70
2019-02-22T08:44:11.375Z,58.83
2019-02-22T08:46:52.977Z,55.93
2019-02-22T08:49:33.756Z,57.77
2019-02-22T08:52:14.460Z,51.33
2019-02-22T08:54:47.075Z,59.80
2019-02-22T08:57:13.131Z,58.97
2019-02-22T09:00:00.942Z,62.43
2019-02-22T09:02:48.761Z,53.87
2019-02-22T09:05:29.690Z,59.30
2019-02-22T09:07:58.172Z,58.63
2019-02-22T09:10:45.996Z,57.93
2019-02-22T09:13:14.482Z,59.07
2019-02-22T09:16:02.283Z,50.73
2019-02-22T09:18:50.105Z,47.47
2019-02-22T09:21:30.651Z,50.30
2019-02-22T09:24:11.342Z,45.10
2019-02-22T09:26:51.984Z,46.30
2019-02-22T09:29:32.733Z,48.73
2019-02-22T09:32:13.607Z,53.33
2019-02-22T09:34:42.172Z,45.47
2019-02-22T09:37:30.000Z,45.80
2019-02-22T09:40:17.878Z,49.70
2019-02-22T09:42:46.368Z,43.80
2019-02-22T09:45:34.161Z,41.47
2019-02-22T09:48:14.920Z,42.33
2019-02-22T09:50:55.735Z,39.53
2019-02-22T09:53:36.429Z,42.00
2019-02-22T09:56:17.034Z,43.57
2019-02-22T09:58:57.593Z,39.63
2019-02-22T10:01:38.492Z,46.50
2019-02-22T10:04:19.402Z,47.17
2019-02-22T10:06:48.081Z,48.10
2019-02-22T10:09:35.925Z,42.40
2019-02-22T10:12:23.784Z,43.63
2019-02-22T10:15:04.089Z,44.60
2019-02-22T10:17:44.903Z,45.03
2019-02-22T10:20:25.767Z,49.87
2019-02-22T10:23:06.700Z,48.67
2019-02-22T10:25:47.552Z,43.97
2019-02-22T10:28:28.207Z,50.00
2019-02-22T10:31:08.999Z,49.73
2019-02-22T10:33:49.793Z,48.57
2019-02-22T10:36:30.601Z,50.77
2019-02-22T10:39:11.468Z,46.30
2019-02-22T10:41:39.957Z,50.13
2019-02-22T10:44:27.758Z,46.87
2019-02-22T10:47:08.036Z,48.87
2019-02-22T10:49:48.799Z,46.97
2019-02-22T10:52:29.379Z,46.93
2019-02-22T10:55:10.190Z,47.00
2019-02-22T10:57:50.896Z,48.10
2019-02-22T11:00:31.555Z,47.13
2019-02-22T11:03:12.685Z,47.63
2019-02-22T11:05:53.502Z,46.77
2019-02-22T11:08:34.603Z,48.07
2019-02-22T11:11:15.496Z,49.67
2019-02-22T11:13:56.404Z,46.70
2019-02-22T11:16:37.271Z,47.60
2019-02-22T11:19:18.190Z,47.20
2019-02-22T11:21:46.664Z,45.47
2019-02-22T11:24:34.456Z,47.73
2019-02-22T11:27:15.628Z,51.30
2019-02-22T11:29:56.378Z,48.13
2019-02-22T11:32:37.083Z,52.10
2019-02-22T11:35:18.077Z,54.77
2019-02-22T11:37:59.012Z,55.10
2019-02-22T11:40:39.667Z,49.17
2019-02-22T11:43:20.445Z,55.60
2019-02-22T11:46:01.318Z,56.50
2019-02-22T11:48:42.169Z,59.90
2019-02-22T11:51:22.964Z,56.13
2019-02-22T11:54:03.596Z,58.87
2019-02-22T11:56:44.220Z,65.50
2019-02-22T11:59:25.037Z,60.10
2019-02-22T12:02:05.587Z,60.30
2019-02-22T12:04:46.524Z,58.13
2019-02-22T12:07:27.274Z,57.57
2019-02-22T12:10:08.395Z,61.20
2019-02-22T12:12:49.208Z,68.37
2019-02-22T12:15:31.511Z,64.67
2019-02-22T12:18:12.856Z,66.03
2019-02-22T12:20:41.363Z,68.43
2019-02-22T12:23:29.206Z,65.27
2019-02-22T12:26:09.898Z,62.00
2019-02-22T12:28:50.740Z,68.10
2019-02-22T12:31:19.377Z,66.13
2019-02-22T12:34:07.314Z,70.43
2019-02-22T12:36:50.141Z,62.67
2019-02-22T12:39:30.883Z,63.17
2019-02-22T12:41:59.497Z,64.20
2019-02-22T12:44:47.410Z,65.07
2019-02-22T12:47:35.264Z,60.87
2019-02-22T12:50:15.551Z,57.97
2019-02-22T12:52:56.318Z,62.40
2019-02-22T12:55:37.065Z,62.70
2019-02-22T12:58:05.632Z,62.03
2019-02-22T13:00:53.421Z,59.13
2019-02-22T13:09:36.496Z,63.67
2019-02-22T13:12:17.080Z,62.20
2019-02-22T13:14:44.495Z,63.27
2019-02-22T13:17:32.296Z,57.37
2019-02-22T13:20:20.103Z,59.97
2019-02-22T13:22:48.658Z,60.60
2019-02-22T13:25:31.726Z,57.37
2019-02-22T13:28:06.649Z,57.47
2019-02-22T13:30:54.458Z,62.53
2019-02-22T13:33:35.075Z,60.97
2019-02-22T13:36:03.542Z,63.67
2019-02-22T13:38:32.018Z,58.93
2019-02-22T13:41:19.546Z,58.77
2019-02-22T13:44:07.014Z,56.27
2019-02-22T13:46:48.202Z,51.40
2019-02-22T13:49:28.680Z,57.57
2019-02-22T13:51:57.246Z,58.33
2019-02-22T13:54:45.059Z,51.87
2019-02-22T13:57:26.232Z,51.53
2019-02-22T14:00:07.452Z,49.17
2019-02-22T14:02:48.198Z,49.63
2019-02-22T14:05:28.423Z,46.80
2019-02-22T14:08:17.755Z,45.77
2019-02-22T14:10:58.138Z,49.93
2019-02-22T14:13:38.528Z,45.53
2019-02-22T14:16:19.670Z,53.33
2019-02-22T14:19:00.494Z,51.50
2019-02-22T14:21:41.184Z,48.83
2019-02-22T14:24:09.786Z,45.43
2019-02-22T14:26:38.347Z,42.20
2019-02-22T14:29:26.170Z,43.07
2019-02-22T14:32:13.988Z,41.53
2019-02-22T14:34:55.192Z,44.77
2019-02-22T14:40:48.195Z,45.50
2019-02-22T14:43:29.315Z,39.63
2019-02-22T14:46:10.347Z,42.10
2019-02-22T14:51:51.346Z,40.63
2019-02-22T14:54:19.818Z,35.90
2019-02-22T14:57:07.708Z,38.43
2019-02-22T14:59:36.188Z,37.47
2019-02-22T15:02:24.023Z,42.60
2019-02-22T15:04:52.537Z,39.83
2019-02-22T15:07:21.125Z,39.10
2019-02-22T15:10:09.383Z,38.53
2019-02-22T15:12:49.611Z,38.23
2019-02-22T15:18:25.504Z,39.47
2019-02-22T15:21:13.428Z,38.63
2019-02-22T15:23:41.919Z,34.20
2019-02-22T15:26:30.317Z,36.90
2019-02-22T15:29:11.009Z,32.03
2019-02-22T15:31:51.556Z,37.70
2019-02-22T15:34:31.946Z,40.73
2019-02-22T15:37:12.751Z,38.43
2019-02-22T15:39:53.689Z,39.80
2019-02-22T15:42:34.541Z,38.73
2019-02-22T15:45:14.917Z,38.63
2019-02-22T15:47:55.791Z,35.77
2019-02-22T15:50:38.370Z,32.53
2019-02-22T15:53:20.791Z,35.43
2019-02-22T15:59:22.628Z,37.50
2019-02-22T16:02:03.600Z,30.20
2019-02-22T16:04:46.181Z,28.60
2019-02-22T16:07:26.968Z,35.30
2019-02-22T16:10:07.652Z,32.00
2019-02-22T16:12:48.416Z,35.20
2019-02-22T16:15:29.022Z,35.47
2019-02-22T16:18:10.741Z,33.53
2019-02-22T16:20:51.563Z,31.27
2019-02-22T16:26:15.892Z,34.80
2019-02-22T16:28:44.469Z,35.00
2019-02-22T16:31:32.375Z,31.43
2019-02-22T16:34:20.263Z,32.17
2019-02-22T16:37:00.917Z,29.53
2019-02-22T16:39:41.765Z,27.60
2019-02-22T16:42:22.555Z,28.17
2019-02-22T16:45:05.112Z,27.07
2019-02-22T16:47:47.149Z,27.60
2019-02-22T16:50:27.619Z,28.53
2019-02-22T16:53:08.110Z,44.70
2019-02-22T16:55:36.699Z,28.93
2019-02-22T16:58:24.712Z,29.90
2019-02-22T17:01:05.759Z,76.10
2019-02-22T17:03:46.612Z,52.73
2019-02-22T17:06:27.337Z,35.00
2019-02-22T17:09:08.273Z,43.37
2019-02-22T17:11:49.001Z,31.17
2019-02-22T17:14:17.634Z,25.33
2019-02-22T17:17:05.547Z,27.67
2019-02-22T17:19:46.399Z,25.87
2019-02-22T17:22:26.943Z,25.97
2019-02-22T17:25:07.490Z,42.57
2019-02-22T17:31:00.857Z,24.00
2019-02-22T17:33:41.646Z,23.77
2019-02-22T17:36:26.760Z,25.83
2019-02-22T17:39:04.894Z,24.03
2019-02-22T17:41:45.502Z,22.33
2019-02-22T17:44:26.025Z,22.37
2019-02-22T17:47:07.047Z,22.87
2019-02-22T17:49:48.189Z,22.63
2019-02-22T17:52:28.570Z,22.60
2019-02-22T17:55:09.405Z,23.57
2019-02-22T17:57:49.931Z,21.73
2019-02-22T18:00:30.632Z,22.50
2019-02-22T18:02:59.194Z,21.07
2019-02-22T18:05:47.015Z,20.77
2019-02-22T18:08:25.865Z,21.50
2019-02-22T18:11:13.656Z,20.97
2019-02-22T18:13:54.592Z,23.83
2019-02-22T18:16:23.078Z,21.13
2019-02-22T18:19:10.931Z,21.90
2019-02-22T18:21:39.476Z,23.27
2019-02-22T18:24:28.880Z,22.57
2019-02-22T18:27:09.827Z,25.53
2019-02-22T18:29:38.296Z,20.13
2019-02-22T18:32:26.100Z,22.90
2019-02-22T18:38:08.243Z,24.23
2019-02-22T18:40:36.788Z,24.77
2019-02-22T18:43:05.401Z,24.53
2019-02-22T18:45:53.224Z,25.50
2019-02-22T18:48:41.896Z,28.23
2019-02-22T18:51:22.763Z,24.60
2019-02-22T18:54:03.266Z,26.30
2019-02-22T18:56:43.988Z,27.60
2019-02-22T18:59:24.828Z,24.03
2019-02-22T19:02:06.493Z,25.07
2019-02-22T19:04:47.285Z,24.00
2019-02-22T19:07:28.079Z,25.63
2019-02-22T19:10:08.994Z,27.80
2019-02-22T19:12:49.831Z,25.83
2019-02-22T19:15:30.606Z,24.53
2019-02-22T19:18:11.485Z,27.47
2019-02-22T19:20:39.992Z,28.57
2019-02-22T19:23:27.786Z,27.77
2019-02-22T19:26:09.104Z,27.83
2019-02-22T19:28:49.872Z,27.83
2019-02-22T19:31:30.842Z,26.23
2019-02-22T19:34:12.570Z,26.10
2019-02-22T19:36:53.346Z,24.60
2019-02-22T19:39:33.730Z,23.60
2019-02-22T19:42:02.284Z,24.17
2019-02-22T19:44:50.086Z,24.57
2019-02-22T19:47:41.493Z,22.67
2019-02-22T19:53:23.849Z,26.00
2019-02-22T19:56:04.160Z,23.40
2019-02-22T19:58:44.698Z,25.40
2019-02-22T20:01:25.619Z,28.47
2019-02-22T20:04:06.651Z,26.73
2019-02-22T20:06:47.637Z,26.27
2019-02-22T20:09:28.335Z,25.10
2019-02-22T20:12:09.278Z,27.23
2019-02-22T20:14:50.145Z,25.17
2019-02-22T20:17:31.098Z,26.00
2019-02-22T20:19:59.582Z,25.77
2019-02-22T20:22:47.464Z,26.20
2019-02-22T20:25:35.341Z,25.57
2019-02-22T20:28:24.809Z,24.40
2019-02-22T20:31:05.423Z,25.07
2019-02-22T20:33:46.333Z,29.07
2019-02-22T20:36:28.721Z,26.77
2019-02-22T20:39:09.540Z,27.03
2019-02-22T20:41:38.043Z,27.87
2019-02-22T20:44:25.961Z,27.07
2019-02-22T20:47:13.789Z,24.47
2019-02-22T20:49:54.816Z,28.13
2019-02-22T20:52:35.381Z,25.77
2019-02-22T20:55:16.392Z,24.70
2019-02-22T20:57:57.216Z,22.07
2019-02-22T21:00:37.795Z,26.53
2019-02-22T21:03:18.289Z,23.93
2019-02-22T21:05:59.192Z,23.83
2019-02-22T21:08:27.664Z,24.53
2019-02-22T21:10:56.143Z,25.90
2019-02-22T21:13:43.977Z,25.27
2019-02-22T21:16:31.771Z,27.20
2019-02-22T21:19:00.266Z,25.83
2019-02-22T21:21:48.103Z,28.80
2019-02-22T21:24:22.991Z,29.05
2019-02-22T21:26:51.476Z,26.77
2019-02-22T21:29:39.345Z,30.37
2019-02-22T21:32:19.692Z,30.07
2019-02-22T21:35:00.612Z,30.77
2019-02-22T21:37:41.491Z,30.83
2019-02-22T21:40:22.488Z,28.93
2019-02-22T21:43:03.216Z,33.97
2019-02-22T21:45:43.886Z,30.43
2019-02-22T21:48:27.629Z,32.40
2019-02-22T21:51:07.381Z,31.00
2019-02-22T21:53:48.285Z,36.53
2019-02-22T21:56:29.392Z,34.27
2019-02-22T21:59:10.170Z,35.87
2019-02-22T22:01:38.903Z,37.80
2019-02-22T22:04:26.792Z,36.40
2019-02-22T22:07:14.590Z,34.57
2019-02-22T22:09:43.060Z,35.53
2019-02-22T22:12:30.893Z,33.90
2019-02-22T22:14:59.389Z,32.87
2019-02-22T22:17:47.203Z,32.87
2019-02-22T22:20:35.020Z,36.10
2019-02-22T22:23:15.586Z,35.13
2019-02-22T22:25:56.535Z,32.57
2019-02-22T22:28:37.340Z,34.60
2019-02-22T22:31:17.978Z,36.47
2019-02-22T22:33:58.740Z,37.47
2019-02-22T22:36:39.799Z,32.07
2019-02-22T22:39:20.755Z,41.37
2019-02-22T22:41:49.208Z,38.40
2019-02-22T22:44:36.740Z,39.90
2019-02-22T22:47:24.267Z,41.33
2019-02-22T22:50:04.585Z,40.93
2019-02-22T22:52:45.453Z,42.23
2019-02-22T22:55:26.343Z,46.00
2019-02-22T22:58:07.096Z,43.50
2019-02-22T23:00:52.490Z,45.23
2019-02-22T23:03:33.312Z,43.93
2019-02-22T23:06:01.862Z,45.63
2019-02-22T23:08:49.684Z,46.03
2019-02-22T23:11:37.503Z,44.17
2019-02-22T23:14:18.377Z,43.57
2019-02-22T23:16:59.285Z,45.70
2019-02-22T23:19:40.128Z,48.30
2019-02-22T23:22:21.030Z,44.20
2019-02-22T23:24:49.536Z,43.77
2019-02-22T23:27:37.332Z,46.70
2019-02-22T23:33:21.908Z,44.37
2019-02-22T23:36:02.951Z,49.30
2019-02-22T23:38:31.449Z,47.43
2019-02-22T23:41:00.055Z,43.70
2019-02-22T23:43:47.867Z,49.33
2019-02-22T23:46:28.309Z,50.77
2019-02-22T23:49:13.251Z,44.03
2019-02-22T23:51:51.407Z,50.63
2019-02-22T23:54:32.220Z,56.70
2019-02-22T23:57:00.763Z,56.93
2019-02-22T23:59:48.654Z,60.07
